createdAt,value
2017-07-21T00:00:54.364Z,19.15
2017-07-21T00:03:21.986Z,19.19
2017-07-21T00:05:49.679Z,19.16
2017-07-21T00:08:17.317Z,19.23
2017-07-21T00:10:44.911Z,19.20
2017-07-21T00:13:12.538Z,19.23
2017-07-21T00:15:40.222Z,19.29
2017-07-21T00:18:07.859Z,19.29
2017-07-21T00:20:35.457Z,19.14
2017-07-21T00:23:03.098Z,18.81
2017-07-21T00:25:30.687Z,18.80
2017-07-21T00:27:58.310Z,18.81
2017-07-21T00:30:25.919Z,18.74
2017-07-21T00:32:53.570Z,18.65
2017-07-21T00:35:21.174Z,18.63
2017-07-21T00:37:48.826Z,18.57
2017-07-21T00:40:16.406Z,18.50
2017-07-21T00:42:44.002Z,18.37
2017-07-21T00:45:11.659Z,18.34
2017-07-21T00:47:39.267Z,18.39
2017-07-21T00:50:06.910Z,18.44
2017-07-21T00:52:34.506Z,18.46
2017-07-21T00:55:02.173Z,18.58
2017-07-21T00:57:29.813Z,18.43
2017-07-21T00:59:57.461Z,18.56
2017-07-21T01:02:25.079Z,18.59
2017-07-21T01:04:52.682Z,18.53
2017-07-21T01:07:20.314Z,18.58
2017-07-21T01:09:47.909Z,18.38
2017-07-21T01:12:15.538Z,18.43
2017-07-21T01:14:43.131Z,18.52
2017-07-21T01:17:10.754Z,18.59
2017-07-21T01:19:38.348Z,18.41
2017-07-21T01:22:06.092Z,18.33
2017-07-21T01:24:33.685Z,18.09
2017-07-21T01:27:01.332Z,18.07
2017-07-21T01:29:28.926Z,18.23
2017-07-21T01:31:56.586Z,18.39
2017-07-21T01:34:24.209Z,18.41
2017-07-21T01:36:51.823Z,18.42
2017-07-21T01:39:19.422Z,18.35
2017-07-21T01:41:47.051Z,18.35
2017-07-21T01:44:14.651Z,18.33
2017-07-21T01:46:42.303Z,18.27
2017-07-21T01:49:09.926Z,18.27
2017-07-21T01:51:37.514Z,18.35
2017-07-21T01:54:05.131Z,18.23
2017-07-21T01:56:32.772Z,18.22
2017-07-21T01:59:00.388Z,18.38
2017-07-21T02:01:27.974Z,18.49
2017-07-21T02:03:55.610Z,18.41
2017-07-21T02:06:23.210Z,18.36
2017-07-21T02:08:50.834Z,18.31
2017-07-21T02:11:18.423Z,18.38
2017-07-21T02:13:46.042Z,18.41
2017-07-21T02:16:13.638Z,18.50
2017-07-21T02:18:41.290Z,18.43
2017-07-21T02:21:08.890Z,18.24
2017-07-21T02:23:36.527Z,18.12
2017-07-21T02:26:04.114Z,18.13
2017-07-21T02:28:31.754Z,17.96
2017-07-21T02:30:59.399Z,17.78
2017-07-21T02:33:27.034Z,17.90
2017-07-21T02:35:54.757Z,18.01
2017-07-21T02:38:22.398Z,17.69
2017-07-21T02:40:50.002Z,17.58
2017-07-21T02:43:17.595Z,17.60
2017-07-21T02:45:45.266Z,17.46
2017-07-21T02:48:12.860Z,17.49
2017-07-21T02:50:40.527Z,17.49
2017-07-21T02:53:08.127Z,17.61
2017-07-21T02:55:35.746Z,17.71
2017-07-21T02:58:03.340Z,17.71
2017-07-21T03:00:31.085Z,17.69
2017-07-21T03:02:58.688Z,17.49
2017-07-21T03:05:26.327Z,17.35
2017-07-21T03:07:53.936Z,17.16
2017-07-21T03:10:21.558Z,17.00
2017-07-21T03:12:49.163Z,16.94
2017-07-21T03:15:16.812Z,16.90
2017-07-21T03:17:44.413Z,16.79
2017-07-21T03:20:12.011Z,16.93
2017-07-21T03:23:06.299Z,16.85
2017-07-21T03:25:33.920Z,16.76
2017-07-21T03:28:01.597Z,16.42
2017-07-21T03:30:29.378Z,16.64
2017-07-21T03:32:56.968Z,16.74
2017-07-21T03:35:24.614Z,16.67
2017-07-21T03:37:52.218Z,16.86
2017-07-21T03:40:19.851Z,16.91
2017-07-21T03:42:47.449Z,16.87
2017-07-21T03:45:15.073Z,16.80
2017-07-21T03:47:42.698Z,16.62
2017-07-21T03:50:10.347Z,16.57
2017-07-21T03:52:37.942Z,16.52
2017-07-21T03:55:05.543Z,16.51
2017-07-21T03:57:33.159Z,16.41
2017-07-21T04:00:00.815Z,16.43
2017-07-21T04:02:28.451Z,16.48
2017-07-21T04:04:56.046Z,16.56
2017-07-21T04:07:23.702Z,16.65
2017-07-21T04:09:51.307Z,16.43
2017-07-21T04:12:18.964Z,16.59
2017-07-21T04:14:46.562Z,16.54
2017-07-21T04:17:14.234Z,16.55
2017-07-21T04:19:41.843Z,16.33
2017-07-21T04:22:09.563Z,16.37
2017-07-21T04:24:37.181Z,16.57
2017-07-21T04:27:04.793Z,16.66
2017-07-21T04:29:32.439Z,16.61
2017-07-21T04:32:00.075Z,16.68
2017-07-21T04:34:27.734Z,16.74
2017-07-21T04:36:55.355Z,16.71
2017-07-21T04:39:22.995Z,16.77
2017-07-21T04:41:50.640Z,16.90
2017-07-21T04:44:18.254Z,16.86
2017-07-21T04:46:45.866Z,16.91
2017-07-21T04:49:13.546Z,16.97
2017-07-21T04:51:41.131Z,17.04
2017-07-21T04:54:08.797Z,17.03
2017-07-21T04:56:36.386Z,17.06
2017-07-21T04:59:04.034Z,17.11
2017-07-21T05:01:31.626Z,17.15
2017-07-21T05:03:59.231Z,17.23
2017-07-21T05:06:26.866Z,17.30
2017-07-21T05:08:54.462Z,17.35
2017-07-21T05:11:22.094Z,17.41
2017-07-21T05:13:49.751Z,17.43
2017-07-21T05:16:17.375Z,17.43
2017-07-21T05:18:44.978Z,17.45
2017-07-21T05:21:12.606Z,17.38
2017-07-21T05:23:40.205Z,17.49
2017-07-21T05:26:07.822Z,17.58
2017-07-21T05:28:35.454Z,17.61
2017-07-21T05:31:03.088Z,17.57
2017-07-21T05:33:30.714Z,17.58
2017-07-21T05:35:58.339Z,17.63
2017-07-21T05:38:25.974Z,17.68
2017-07-21T05:40:53.599Z,17.78
2017-07-21T05:43:21.260Z,17.87
2017-07-21T05:45:48.874Z,17.91
2017-07-21T05:48:16.478Z,17.95
2017-07-21T05:50:44.109Z,17.95
2017-07-21T05:53:11.711Z,18.01
2017-07-21T05:55:39.342Z,18.03
2017-07-21T05:58:07.010Z,18.05
2017-07-21T06:00:34.654Z,18.03
2017-07-21T06:03:02.270Z,18.02
2017-07-21T06:05:29.892Z,18.04
2017-07-21T06:07:57.494Z,18.04
2017-07-21T06:10:25.208Z,18.03
2017-07-21T06:12:52.826Z,18.00
2017-07-21T06:15:20.445Z,18.08
2017-07-21T06:17:48.051Z,18.19
2017-07-21T06:20:15.671Z,18.22
2017-07-21T06:22:43.259Z,18.26
2017-07-21T06:25:10.887Z,18.33
2017-07-21T06:27:38.474Z,18.35
2017-07-21T06:30:06.100Z,18.42
2017-07-21T06:32:33.727Z,18.46
2017-07-21T06:35:01.444Z,18.47
2017-07-21T06:37:29.127Z,18.37
2017-07-21T06:39:56.786Z,18.40
2017-07-21T06:42:24.386Z,18.51
2017-07-21T06:44:52.041Z,18.54
2017-07-21T06:47:19.631Z,18.55
2017-07-21T06:49:47.454Z,18.58
2017-07-21T06:52:15.063Z,18.56
2017-07-21T06:54:42.702Z,18.43
2017-07-21T06:57:10.354Z,18.46
2017-07-21T06:59:38.048Z,18.56
2017-07-21T07:02:06.819Z,18.49
2017-07-21T07:04:34.450Z,18.56
2017-07-21T07:07:02.116Z,18.59
2017-07-21T07:09:29.756Z,18.68
2017-07-21T07:11:57.365Z,18.73
2017-07-21T07:14:25.644Z,18.77
2017-07-21T07:16:53.603Z,18.71
2017-07-21T07:19:21.300Z,18.71
2017-07-21T07:21:48.967Z,18.71
2017-07-21T07:24:16.587Z,18.73
2017-07-21T07:26:44.199Z,18.82
2017-07-21T07:29:11.897Z,18.86
2017-07-21T07:31:39.486Z,18.92
2017-07-21T07:34:07.131Z,18.98
2017-07-21T07:36:34.738Z,19.02
2017-07-21T07:39:02.394Z,19.03
2017-07-21T07:41:30.018Z,19.04
2017-07-21T07:43:57.627Z,19.11
2017-07-21T07:46:25.252Z,19.17
2017-07-21T07:48:52.885Z,19.13
2017-07-21T07:51:20.527Z,19.17
2017-07-21T07:53:48.160Z,19.16
2017-07-21T07:56:15.877Z,19.13
2017-07-21T07:58:43.486Z,19.24
2017-07-21T08:01:11.131Z,19.37
2017-07-21T08:03:38.741Z,19.49
2017-07-21T08:06:06.498Z,19.59
2017-07-21T08:08:34.094Z,19.55
2017-07-21T08:11:01.923Z,19.52
2017-07-21T08:13:29.538Z,19.51
2017-07-21T08:15:57.151Z,19.54
2017-07-21T08:18:24.740Z,19.57
2017-07-21T08:20:52.387Z,19.58
2017-07-21T08:23:19.986Z,19.67
2017-07-21T08:25:47.634Z,19.68
2017-07-21T08:28:15.250Z,19.73
2017-07-21T08:30:42.907Z,19.86
2017-07-21T08:33:10.504Z,19.92
2017-07-21T08:35:38.143Z,19.95
2017-07-21T08:38:05.746Z,20.03
2017-07-21T08:40:33.380Z,20.16
2017-07-21T08:43:00.966Z,20.10
2017-07-21T08:45:28.590Z,20.02
2017-07-21T08:47:56.214Z,20.05
2017-07-21T08:50:23.840Z,20.08
2017-07-21T08:52:51.437Z,20.17
2017-07-21T08:55:19.122Z,20.25
2017-07-21T08:57:46.768Z,20.31
2017-07-21T09:00:14.419Z,20.42
2017-07-21T09:02:42.014Z,20.56
2017-07-21T09:05:09.703Z,20.67
2017-07-21T09:07:38.074Z,20.73
2017-07-21T09:10:05.728Z,20.77
2017-07-21T09:12:33.430Z,20.87
2017-07-21T09:15:01.021Z,20.99
2017-07-21T09:17:28.678Z,21.12
2017-07-21T09:19:56.322Z,21.14
2017-07-21T09:22:23.965Z,21.15
2017-07-21T09:24:51.567Z,21.15
2017-07-21T09:27:19.198Z,21.13
2017-07-21T09:29:46.822Z,21.17
2017-07-21T09:32:14.491Z,21.19
2017-07-21T09:34:42.096Z,21.22
2017-07-21T09:37:09.742Z,21.23
2017-07-21T09:39:37.435Z,21.26
2017-07-21T09:42:05.095Z,21.32
2017-07-21T09:44:32.732Z,21.34
2017-07-21T09:47:00.367Z,21.43
2017-07-21T09:49:27.958Z,21.50
2017-07-21T09:51:55.598Z,21.56
2017-07-21T09:54:23.198Z,21.56
2017-07-21T09:56:50.848Z,21.67
2017-07-21T09:59:18.435Z,21.77
2017-07-21T10:01:46.111Z,21.91
2017-07-21T10:04:13.709Z,21.77
2017-07-21T10:06:41.308Z,21.91
2017-07-21T10:09:08.935Z,22.05
2017-07-21T10:11:36.551Z,22.15
2017-07-21T10:14:04.981Z,22.23
2017-07-21T10:16:32.583Z,22.36
2017-07-21T10:19:00.260Z,22.47
2017-07-21T10:21:27.856Z,22.58
2017-07-21T10:23:55.479Z,22.72
2017-07-21T10:26:23.086Z,22.87
2017-07-21T10:28:50.734Z,22.95
2017-07-21T10:31:18.334Z,23.14
2017-07-21T10:33:45.993Z,23.36
2017-07-21T10:36:13.621Z,23.42
2017-07-21T10:38:41.242Z,23.43
2017-07-21T10:41:08.836Z,23.46
2017-07-21T10:43:36.486Z,23.38
2017-07-21T10:46:04.073Z,23.58
2017-07-21T10:48:31.706Z,23.63
2017-07-21T10:50:59.311Z,23.75
2017-07-21T10:53:26.932Z,23.83
2017-07-21T10:55:54.549Z,24.01
2017-07-21T10:58:22.180Z,24.19
2017-07-21T11:00:49.778Z,24.36
2017-07-21T11:03:17.454Z,24.32
2017-07-21T11:05:45.042Z,24.59
2017-07-21T11:08:12.678Z,24.84
2017-07-21T11:10:40.283Z,24.98
2017-07-21T11:13:07.940Z,25.14
2017-07-21T11:15:35.528Z,24.97
2017-07-21T11:18:03.244Z,24.58
2017-07-21T11:20:30.890Z,24.66
2017-07-21T11:22:58.526Z,24.64
2017-07-21T11:25:26.166Z,24.98
2017-07-21T11:27:53.782Z,25.15
2017-07-21T11:30:21.376Z,25.10
2017-07-21T11:32:49.026Z,24.75
2017-07-21T11:35:16.767Z,24.92
2017-07-21T11:37:44.386Z,25.23
2017-07-21T11:40:11.967Z,25.55
2017-07-21T11:42:39.590Z,25.84
2017-07-21T11:45:07.287Z,25.96
2017-07-21T11:47:34.914Z,26.32
2017-07-21T11:50:02.514Z,26.52
2017-07-21T11:52:30.162Z,26.63
2017-07-21T11:54:57.834Z,26.52
2017-07-21T11:57:25.465Z,26.38
2017-07-21T11:59:53.085Z,25.91
2017-07-21T12:02:20.725Z,25.28
2017-07-21T12:04:48.327Z,25.61
2017-07-21T12:07:16.047Z,25.47
2017-07-21T12:09:43.673Z,25.48
2017-07-21T12:12:11.265Z,25.55
2017-07-21T12:14:38.901Z,25.88
2017-07-21T12:17:06.498Z,26.02
2017-07-21T12:19:34.145Z,26.21
2017-07-21T12:22:01.754Z,26.59
2017-07-21T12:24:29.378Z,26.74
2017-07-21T12:26:56.990Z,26.83
2017-07-21T12:29:24.618Z,26.87
2017-07-21T12:31:52.213Z,27.06
2017-07-21T12:34:19.847Z,27.31
2017-07-21T12:36:47.443Z,27.41
2017-07-21T12:39:15.084Z,26.56
2017-07-21T12:41:42.681Z,26.99
2017-07-21T12:44:10.351Z,27.12
2017-07-21T12:46:38.290Z,27.28
2017-07-21T12:49:05.963Z,27.48
2017-07-21T12:51:33.554Z,26.82
2017-07-21T12:54:01.206Z,26.97
2017-07-21T12:56:28.796Z,27.10
2017-07-21T12:58:56.414Z,27.31
2017-07-21T13:01:24.011Z,27.41
2017-07-21T13:03:51.673Z,27.48
2017-07-21T13:06:19.275Z,27.44
2017-07-21T13:08:46.903Z,27.80
2017-07-21T13:11:14.518Z,27.97
2017-07-21T13:13:42.147Z,27.97
2017-07-21T13:16:09.734Z,27.87
2017-07-21T13:18:37.385Z,27.92
2017-07-21T13:21:04.999Z,28.13
2017-07-21T13:23:32.626Z,28.23
2017-07-21T13:26:00.228Z,28.38
2017-07-21T13:28:27.873Z,28.66
2017-07-21T13:30:55.467Z,28.82
2017-07-21T13:33:23.140Z,28.94
2017-07-21T13:35:50.725Z,28.32
2017-07-21T13:38:18.352Z,28.28
2017-07-21T13:40:46.013Z,28.47
2017-07-21T13:43:13.663Z,28.68
2017-07-21T13:45:41.270Z,28.88
2017-07-21T13:48:08.914Z,29.08
2017-07-21T13:50:36.527Z,29.29
2017-07-21T13:53:04.168Z,29.27
2017-07-21T13:55:31.790Z,28.75
2017-07-21T13:57:59.399Z,28.26
2017-07-21T14:00:27.046Z,28.47
2017-07-21T14:02:54.639Z,29.14
2017-07-21T14:05:22.282Z,29.65
2017-07-21T14:07:49.878Z,29.93
2017-07-21T14:10:17.534Z,30.11
2017-07-21T14:12:45.132Z,29.57
2017-07-21T14:15:12.760Z,29.00
2017-07-21T14:17:40.363Z,29.32
2017-07-21T14:20:07.992Z,29.65
2017-07-21T14:22:35.662Z,29.92
2017-07-21T14:25:03.303Z,30.23
2017-07-21T14:27:30.896Z,30.55
2017-07-21T14:29:58.523Z,31.07
2017-07-21T14:32:26.143Z,31.11
2017-07-21T14:34:53.766Z,31.27
2017-07-21T14:37:21.416Z,31.11
2017-07-21T14:39:49.053Z,31.44
2017-07-21T14:42:16.645Z,31.20
2017-07-21T14:44:44.281Z,30.74
2017-07-21T14:47:11.884Z,30.62
2017-07-21T14:49:39.521Z,31.23
2017-07-21T14:52:07.199Z,31.11
2017-07-21T14:54:34.827Z,31.24
2017-07-21T14:57:02.424Z,31.00
2017-07-21T14:59:30.066Z,31.30
2017-07-21T15:01:58.439Z,31.55
2017-07-21T15:04:26.073Z,31.65
2017-07-21T15:06:53.676Z,31.52
2017-07-21T15:09:21.315Z,31.86
2017-07-21T15:11:48.970Z,32.27
2017-07-21T15:14:16.611Z,32.32
2017-07-21T15:16:44.234Z,32.31
2017-07-21T15:19:11.858Z,32.37
2017-07-21T15:21:39.468Z,32.50
2017-07-21T15:24:07.119Z,32.52
2017-07-21T15:26:34.747Z,32.55
2017-07-21T15:29:02.349Z,32.12
2017-07-21T15:31:29.991Z,31.88
2017-07-21T15:33:57.592Z,31.93
2017-07-21T15:36:25.231Z,32.20
2017-07-21T15:38:52.849Z,32.17
2017-07-21T15:41:20.487Z,32.40
2017-07-21T15:43:48.099Z,32.59
2017-07-21T15:46:15.771Z,32.66
2017-07-21T15:48:43.381Z,32.74
2017-07-21T15:51:11.010Z,32.69
2017-07-21T15:53:38.638Z,32.69
2017-07-21T15:56:06.266Z,32.91
2017-07-21T15:58:33.875Z,32.61
2017-07-21T16:01:01.516Z,32.54
2017-07-21T16:03:29.120Z,32.79
2017-07-21T16:05:56.769Z,32.75
2017-07-21T16:08:24.382Z,32.90
2017-07-21T16:10:52.028Z,32.84
2017-07-21T16:13:19.674Z,32.91
2017-07-21T16:15:47.324Z,32.85
2017-07-21T16:18:15.024Z,32.80
2017-07-21T16:20:42.660Z,32.06
2017-07-21T16:23:10.274Z,32.01
2017-07-21T16:25:37.946Z,32.40
2017-07-21T16:28:05.545Z,32.50
2017-07-21T16:30:33.177Z,32.61
2017-07-21T16:33:00.787Z,32.58
2017-07-21T16:35:28.551Z,32.36
2017-07-21T16:37:56.165Z,32.34
2017-07-21T16:40:23.877Z,32.39
2017-07-21T16:42:51.574Z,32.44
2017-07-21T16:45:19.207Z,32.56
2017-07-21T16:47:46.850Z,32.56
2017-07-21T16:50:14.442Z,32.65
2017-07-21T16:52:42.056Z,32.66
2017-07-21T16:55:09.675Z,32.60
2017-07-21T16:57:37.295Z,32.52
2017-07-21T17:00:04.890Z,32.31
2017-07-21T17:02:32.584Z,32.21
2017-07-21T17:05:00.186Z,32.05
2017-07-21T17:07:27.850Z,32.05
2017-07-21T17:09:55.524Z,31.84
2017-07-21T17:12:23.146Z,31.71
2017-07-21T17:14:50.765Z,31.83
2017-07-21T17:17:18.371Z,31.70
2017-07-21T17:19:46.001Z,31.47
2017-07-21T17:22:13.603Z,31.31
2017-07-21T17:24:41.257Z,31.28
2017-07-21T17:27:08.846Z,31.21
2017-07-21T17:29:36.494Z,31.10
2017-07-21T17:32:04.098Z,31.15
2017-07-21T17:34:31.916Z,31.10
2017-07-21T17:36:59.526Z,31.09
2017-07-21T17:39:27.176Z,31.12
2017-07-21T17:41:54.795Z,31.19
2017-07-21T17:44:22.418Z,31.30
2017-07-21T17:46:50.035Z,31.36
2017-07-21T17:49:17.667Z,31.10
2017-07-21T17:51:45.291Z,30.90
2017-07-21T17:54:12.939Z,31.04
2017-07-21T17:56:40.545Z,31.11
2017-07-21T17:59:08.230Z,31.21
2017-07-21T18:01:35.834Z,31.28
2017-07-21T18:04:03.459Z,31.37
2017-07-21T18:06:31.077Z,31.38
2017-07-21T18:08:58.747Z,31.25
2017-07-21T18:11:26.341Z,31.17
2017-07-21T18:13:54.000Z,31.18
2017-07-21T18:16:21.599Z,30.97
2017-07-21T18:18:49.246Z,30.68
2017-07-21T18:21:16.871Z,30.62
2017-07-21T18:23:44.510Z,30.64
2017-07-21T18:26:12.111Z,30.58
2017-07-21T18:28:39.725Z,30.58
2017-07-21T18:31:07.346Z,30.55
2017-07-21T18:33:34.949Z,30.36
2017-07-21T18:36:02.634Z,30.44
2017-07-21T18:38:30.231Z,30.35
2017-07-21T18:40:57.873Z,30.22
2017-07-21T18:43:25.477Z,29.99
2017-07-21T18:45:53.103Z,29.78
2017-07-21T18:48:20.702Z,29.64
2017-07-21T18:50:48.811Z,29.53
2017-07-21T18:53:16.627Z,29.39
2017-07-21T18:55:44.215Z,29.20
2017-07-21T18:58:11.851Z,29.07
2017-07-21T19:00:39.499Z,28.98
2017-07-21T19:03:07.140Z,28.78
2017-07-21T19:05:34.755Z,28.63
2017-07-21T19:08:02.454Z,28.55
2017-07-21T19:10:30.052Z,28.49
2017-07-21T19:12:57.786Z,28.41
2017-07-21T19:15:25.390Z,28.32
2017-07-21T19:17:53.244Z,28.26
2017-07-21T19:20:20.862Z,28.12
2017-07-21T19:22:48.467Z,28.05
2017-07-21T19:25:16.086Z,28.03
2017-07-21T19:27:43.730Z,27.85
2017-07-21T19:30:11.334Z,27.76
2017-07-21T19:59:17.181Z,26.81
2017-07-21T20:01:44.934Z,26.87
2017-07-21T20:04:12.530Z,26.90
2017-07-21T20:06:40.136Z,26.90
2017-07-21T20:09:07.786Z,26.91
2017-07-21T20:11:35.413Z,27.03
2017-07-21T20:14:03.002Z,27.12
2017-07-21T20:16:30.667Z,27.15
2017-07-21T20:18:58.287Z,27.19
2017-07-21T20:21:25.895Z,27.17
2017-07-21T20:23:53.530Z,27.11
2017-07-21T20:26:21.134Z,27.06
2017-07-21T20:28:48.959Z,27.08
2017-07-21T20:31:16.548Z,27.09
2017-07-21T20:33:44.431Z,27.03
2017-07-21T20:36:12.040Z,26.96
2017-07-21T20:38:39.680Z,26.88
2017-07-21T20:41:07.295Z,26.85
2017-07-21T20:43:34.939Z,26.83
2017-07-21T20:46:02.546Z,26.80
2017-07-21T20:48:30.191Z,26.74
2017-07-21T20:50:57.813Z,26.69
2017-07-21T20:53:25.513Z,26.52
2017-07-21T20:55:53.111Z,26.46
2017-07-21T20:58:20.757Z,26.47
2017-07-21T21:00:48.355Z,26.45
2017-07-21T21:03:16.070Z,26.38
2017-07-21T21:05:43.675Z,26.24
2017-07-21T21:08:11.303Z,26.25
2017-07-21T21:10:38.898Z,26.22
2017-07-21T21:13:06.621Z,26.24
2017-07-21T21:15:34.334Z,26.29
2017-07-21T21:18:02.027Z,26.33
2017-07-21T21:20:29.620Z,26.30
2017-07-21T21:22:57.302Z,26.23
2017-07-21T21:25:24.937Z,26.21
2017-07-21T21:27:52.587Z,26.18
2017-07-21T21:30:20.215Z,26.13
2017-07-21T21:32:47.862Z,26.12
2017-07-21T21:35:15.463Z,26.13
2017-07-21T21:37:43.100Z,26.17
2017-07-21T21:40:10.762Z,26.16
2017-07-21T21:42:38.432Z,26.10
2017-07-21T21:45:06.073Z,26.12
2017-07-21T21:47:33.741Z,26.13
2017-07-21T21:50:01.409Z,26.13
2017-07-21T21:52:29.003Z,26.12
2017-07-21T21:54:56.653Z,26.09
2017-07-21T21:57:24.302Z,25.99
2017-07-21T21:59:51.924Z,25.97
2017-07-21T22:02:19.544Z,25.86
2017-07-21T22:04:47.171Z,25.72
2017-07-21T22:07:14.780Z,25.65
2017-07-21T22:09:42.411Z,25.59
2017-07-21T22:12:10.025Z,25.51
2017-07-21T22:14:37.653Z,25.48
2017-07-21T22:17:05.263Z,25.37
2017-07-21T22:19:32.919Z,25.33
2017-07-21T22:22:00.510Z,25.33
2017-07-21T22:24:28.154Z,25.26
2017-07-21T22:26:55.783Z,25.28
2017-07-21T22:29:23.461Z,25.28
2017-07-21T22:31:51.075Z,25.22
2017-07-21T22:34:18.723Z,25.19
2017-07-21T22:36:46.342Z,25.17
2017-07-21T22:39:13.949Z,25.18
2017-07-21T22:41:41.593Z,25.21
2017-07-21T22:44:09.222Z,25.19
2017-07-21T22:46:36.853Z,25.21
2017-07-21T22:49:04.463Z,25.19
2017-07-21T22:51:32.098Z,25.18
2017-07-21T22:53:59.694Z,25.08
2017-07-21T22:56:27.326Z,25.03
2017-07-21T22:58:54.959Z,25.05
2017-07-21T23:01:22.612Z,25.01
2017-07-21T23:03:50.290Z,24.97
2017-07-21T23:06:17.921Z,24.97
2017-07-21T23:08:45.558Z,24.90
2017-07-21T23:11:13.244Z,24.84
2017-07-21T23:13:40.863Z,24.77
2017-07-21T23:16:08.458Z,24.68
2017-07-21T23:18:36.077Z,24.56
2017-07-21T23:21:03.794Z,24.44
2017-07-21T23:23:31.418Z,24.40
2017-07-21T23:25:59.009Z,24.35
2017-07-21T23:28:26.691Z,24.30
2017-07-21T23:30:54.291Z,24.19
2017-07-21T23:33:22.024Z,24.18
2017-07-21T23:35:49.611Z,24.26
2017-07-21T23:38:17.245Z,24.35
2017-07-21T23:40:44.843Z,24.42
2017-07-21T23:43:12.470Z,24.39
2017-07-21T23:45:40.086Z,24.45
2017-07-21T23:48:07.778Z,24.48
2017-07-21T23:50:35.371Z,24.44
2017-07-21T23:53:02.994Z,24.48
2017-07-21T23:55:30.638Z,24.54
2017-07-21T23:57:58.262Z,24.57
